sensor_id;sensor_type;location;lat;lon;timestamp;pressure;altitude;pressure_sealevel;temperature;humidity
39051;BME280;24805;55.852;37.644;2022-08-05T00:03:31;99953.78;;;23.85;48.54
39051;BME280;24805;55.852;37.644;2022-08-05T00:08:34;99947.47;;;23.79;48.84
39051;BME280;24805;55.852;37.644;2022-08-05T00:13:38;99955.31;;;23.76;48.96
39051;BME280;24805;55.852;37.644;2022-08-05T00:18:46;99950.91;;;23.69;48.95
39051;BME280;24805;55.852;37.644;2022-08-05T00:23:49;99948.63;;;23.61;49.23
39051;BME280;24805;55.852;37.644;2022-08-05T00:29:10;99942.84;;;23.53;49.33
39051;BME280;24805;55.852;37.644;2022-08-05T00:34:13;99944.31;;;23.44;49.71
39051;BME280;24805;55.852;37.644;2022-08-05T00:39:36;99937.47;;;23.36;49.74
39051;BME280;24805;55.852;37.644;2022-08-05T00:44:44;99939.03;;;23.32;49.45
39051;BME280;24805;55.852;37.644;2022-08-05T00:49:46;99939.78;;;23.27;49.79
39051;BME280;24805;55.852;37.644;2022-08-05T00:54:52;99937.81;;;23.23;50.07
39051;BME280;24805;55.852;37.644;2022-08-05T00:59:56;99938.31;;;23.20;50.05
39051;BME280;24805;55.852;37.644;2022-08-05T01:04:58;99936.94;;;23.17;50.19
39051;BME280;24805;55.852;37.644;2022-08-05T01:10:01;99931.78;;;23.16;50.44
39051;BME280;24805;55.852;37.644;2022-08-05T01:15:11;99941.28;;;23.18;50.58
39051;BME280;24805;55.852;37.644;2022-08-05T01:20:45;99943.94;;;23.13;50.54
39051;BME280;24805;55.852;37.644;2022-08-05T01:31:17;99950.94;;;23.31;50.03
39051;BME280;24805;55.852;37.644;2022-08-05T01:36:25;99945.75;;;23.29;50.19
39051;BME280;24805;55.852;37.644;2022-08-05T01:41:34;99947.09;;;23.27;50.51
39051;BME280;24805;55.852;37.644;2022-08-05T01:46:39;99934.00;;;23.02;50.56
39051;BME280;24805;55.852;37.644;2022-08-05T01:51:48;99954.66;;;23.08;50.75
39051;BME280;24805;55.852;37.644;2022-08-05T01:56:52;99941.00;;;22.98;50.99
39051;BME280;24805;55.852;37.644;2022-08-05T02:02:19;99949.66;;;23.00;51.02
39051;BME280;24805;55.852;37.644;2022-08-05T02:07:30;99947.41;;;22.92;51.57
39051;BME280;24805;55.852;37.644;2022-08-05T02:12:54;99936.78;;;23.07;51.19
39051;BME280;24805;55.852;37.644;2022-08-05T02:18:06;99945.84;;;22.96;51.69
39051;BME280;24805;55.852;37.644;2022-08-05T02:23:35;99938.78;;;22.78;51.84
39051;BME280;24805;55.852;37.644;2022-08-05T02:28:41;99955.69;;;22.85;51.88
39051;BME280;24805;55.852;37.644;2022-08-05T02:33:52;99965.03;;;22.94;51.91
39051;BME280;24805;55.852;37.644;2022-08-05T02:38:59;99963.31;;;22.88;51.86
39051;BME280;24805;55.852;37.644;2022-08-05T02:44:06;99968.94;;;23.03;52.08
39051;BME280;24805;55.852;37.644;2022-08-05T02:49:16;99973.28;;;23.05;51.87
39051;BME280;24805;55.852;37.644;2022-08-05T02:54:23;99976.97;;;22.98;51.95
39051;BME280;24805;55.852;37.644;2022-08-05T02:59:40;99964.09;;;23.06;51.93
39051;BME280;24805;55.852;37.644;2022-08-05T03:04:53;99994.84;;;23.16;51.53
39051;BME280;24805;55.852;37.644;2022-08-05T03:09:56;99989.91;;;23.30;51.31
39051;BME280;24805;55.852;37.644;2022-08-05T03:14:58;99992.88;;;23.50;51.02
39051;BME280;24805;55.852;37.644;2022-08-05T03:20:01;99988.25;;;23.67;50.53
39051;BME280;24805;55.852;37.644;2022-08-05T03:25:04;99997.97;;;23.85;50.23
39051;BME280;24805;55.852;37.644;2022-08-05T03:30:28;99994.97;;;24.09;49.77
39051;BME280;24805;55.852;37.644;2022-08-05T03:35:35;99973.66;;;24.17;49.34
39051;BME280;24805;55.852;37.644;2022-08-05T03:40:44;99997.75;;;24.41;48.80
39051;BME280;24805;55.852;37.644;2022-08-05T03:45:51;100013.91;;;24.52;48.60
39051;BME280;24805;55.852;37.644;2022-08-05T03:51:09;100007.94;;;24.87;48.54
39051;BME280;24805;55.852;37.644;2022-08-05T03:56:38;100021.97;;;25.06;47.75
39051;BME280;24805;55.852;37.644;2022-08-05T04:01:45;100024.53;;;25.23;47.39
39051;BME280;24805;55.852;37.644;2022-08-05T04:06:49;100031.59;;;25.24;47.13
39051;BME280;24805;55.852;37.644;2022-08-05T04:11:53;100032.75;;;25.33;46.71
39051;BME280;24805;55.852;37.644;2022-08-05T04:17:00;100029.81;;;25.45;47.09
39051;BME280;24805;55.852;37.644;2022-08-05T04:22:03;100032.75;;;25.38;46.86
39051;BME280;24805;55.852;37.644;2022-08-05T04:27:13;100047.09;;;25.28;47.36
39051;BME280;24805;55.852;37.644;2022-08-05T04:32:16;100034.34;;;25.29;47.25
39051;BME280;24805;55.852;37.644;2022-08-05T04:37:32;100040.09;;;25.32;47.23
39051;BME280;24805;55.852;37.644;2022-08-05T04:42:54;100039.09;;;25.49;47.34
39051;BME280;24805;55.852;37.644;2022-08-05T04:48:08;100030.13;;;25.95;46.37
39051;BME280;24805;55.852;37.644;2022-08-05T04:53:27;100027.41;;;26.00;46.35
39051;BME280;24805;55.852;37.644;2022-08-05T04:58:34;100034.00;;;26.15;45.78
39051;BME280;24805;55.852;37.644;2022-08-05T05:03:37;100036.25;;;26.33;45.37
39051;BME280;24805;55.852;37.644;2022-08-05T05:08:43;100032.72;;;26.37;45.44
39051;BME280;24805;55.852;37.644;2022-08-05T05:13:50;100032.97;;;26.41;45.20
39051;BME280;24805;55.852;37.644;2022-08-05T05:18:55;100017.75;;;26.45;44.79
39051;BME280;24805;55.852;37.644;2022-08-05T05:24:18;100034.09;;;26.65;44.74
39051;BME280;24805;55.852;37.644;2022-08-05T05:29:22;100023.78;;;27.03;44.44
39051;BME280;24805;55.852;37.644;2022-08-05T05:34:41;100027.03;;;27.35;43.64
39051;BME280;24805;55.852;37.644;2022-08-05T05:39:43;100025.91;;;27.57;42.66
39051;BME280;24805;55.852;37.644;2022-08-05T05:44:45;100037.03;;;27.70;42.28
39051;BME280;24805;55.852;37.644;2022-08-05T05:49:48;100033.22;;;27.71;42.41
39051;BME280;24805;55.852;37.644;2022-08-05T05:55:06;100038.34;;;27.83;42.35
39051;BME280;24805;55.852;37.644;2022-08-05T06:00:17;100043.72;;;27.98;41.93
39051;BME280;24805;55.852;37.644;2022-08-05T06:05:20;100043.81;;;28.42;41.27
39051;BME280;24805;55.852;37.644;2022-08-05T06:10:23;100041.38;;;29.14;39.87
39051;BME280;24805;55.852;37.644;2022-08-05T06:15:30;100046.28;;;29.94;38.32
39051;BME280;24805;55.852;37.644;2022-08-05T06:20:52;100040.47;;;30.62;36.26
39051;BME280;24805;55.852;37.644;2022-08-05T06:25:54;100035.50;;;31.15;36.48
39051;BME280;24805;55.852;37.644;2022-08-05T06:31:17;100044.47;;;32.66;33.55
39051;BME280;24805;55.852;37.644;2022-08-05T06:36:23;100049.53;;;33.79;31.94
39051;BME280;24805;55.852;37.644;2022-08-05T06:41:26;100045.94;;;35.60;29.13
39051;BME280;24805;55.852;37.644;2022-08-05T06:46:35;100036.38;;;37.00;26.91
39051;BME280;24805;55.852;37.644;2022-08-05T06:51:38;100056.84;;;37.77;25.26
39051;BME280;24805;55.852;37.644;2022-08-05T06:56:41;100048.06;;;38.64;23.34
39051;BME280;24805;55.852;37.644;2022-08-05T07:01:55;100047.03;;;38.84;22.90
39051;BME280;24805;55.852;37.644;2022-08-05T07:06:57;100045.63;;;39.81;21.70
39051;BME280;24805;55.852;37.644;2022-08-05T07:11:59;100055.41;;;39.59;21.33
39051;BME280;24805;55.852;37.644;2022-08-05T07:17:02;100056.75;;;38.50;22.45
39051;BME280;24805;55.852;37.644;2022-08-05T07:22:24;100051.25;;;40.16;21.07
39051;BME280;24805;55.852;37.644;2022-08-05T07:27:30;100047.75;;;40.73;20.28
39051;BME280;24805;55.852;37.644;2022-08-05T07:32:53;100049.84;;;40.80;18.76
39051;BME280;24805;55.852;37.644;2022-08-05T07:37:55;100048.44;;;40.51;18.84
39051;BME280;24805;55.852;37.644;2022-08-05T07:42:57;100043.00;;;40.39;18.63
39051;BME280;24805;55.852;37.644;2022-08-05T07:48:05;100045.28;;;39.35;18.86
39051;BME280;24805;55.852;37.644;2022-08-05T07:53:09;100037.22;;;39.30;19.70
39051;BME280;24805;55.852;37.644;2022-08-05T07:58:13;100035.16;;;39.27;19.50
39051;BME280;24805;55.852;37.644;2022-08-05T08:03:37;100025.16;;;40.40;18.91
39051;BME280;24805;55.852;37.644;2022-08-05T08:08:45;100024.06;;;41.48;17.69
39051;BME280;24805;55.852;37.644;2022-08-05T08:13:49;100021.28;;;42.27;16.49
39051;BME280;24805;55.852;37.644;2022-08-05T08:19:01;100024.56;;;42.96;15.48
39051;BME280;24805;55.852;37.644;2022-08-05T08:24:07;100022.13;;;43.86;15.11
39051;BME280;24805;55.852;37.644;2022-08-05T08:29:14;100020.78;;;44.24;14.09
39051;BME280;24805;55.852;37.644;2022-08-05T08:34:36;100023.53;;;44.21;13.95
39051;BME280;24805;55.852;37.644;2022-08-05T08:39:39;100024.22;;;43.45;14.42
39051;BME280;24805;55.852;37.644;2022-08-05T08:44:53;100027.59;;;43.21;15.51
39051;BME280;24805;55.852;37.644;2022-08-05T08:50:18;100029.19;;;43.66;14.07
39051;BME280;24805;55.852;37.644;2022-08-05T08:55:40;100022.13;;;44.59;13.96
39051;BME280;24805;55.852;37.644;2022-08-05T09:01:02;100027.44;;;44.99;13.45
39051;BME280;24805;55.852;37.644;2022-08-05T09:06:04;100002.28;;;45.39;13.54
39051;BME280;24805;55.852;37.644;2022-08-05T09:11:12;100009.31;;;46.39;12.78
39051;BME280;24805;55.852;37.644;2022-08-05T09:16:15;100005.63;;;46.56;12.55
39051;BME280;24805;55.852;37.644;2022-08-05T09:21:19;100003.47;;;46.82;11.65
39051;BME280;24805;55.852;37.644;2022-08-05T09:26:49;100005.50;;;46.81;12.43
39051;BME280;24805;55.852;37.644;2022-08-05T09:32:03;100014.50;;;46.44;12.09
39051;BME280;24805;55.852;37.644;2022-08-05T09:37:26;99999.34;;;46.17;12.00
39051;BME280;24805;55.852;37.644;2022-08-05T09:42:49;99987.25;;;47.14;11.65
39051;BME280;24805;55.852;37.644;2022-08-05T09:47:54;99987.50;;;48.09;11.00
39051;BME280;24805;55.852;37.644;2022-08-05T09:52:58;99974.28;;;50.07;10.32
39051;BME280;24805;55.852;37.644;2022-08-05T09:58:12;99981.69;;;51.25;9.11
39051;BME280;24805;55.852;37.644;2022-08-05T10:03:14;99968.25;;;52.04;8.95
39051;BME280;24805;55.852;37.644;2022-08-05T10:08:23;99970.38;;;51.99;9.09
39051;BME280;24805;55.852;37.644;2022-08-05T10:13:38;99960.25;;;51.86;8.87
39051;BME280;24805;55.852;37.644;2022-08-05T10:18:49;99966.66;;;52.03;8.66
39051;BME280;24805;55.852;37.644;2022-08-05T10:23:52;99969.72;;;51.50;8.26
39051;BME280;24805;55.852;37.644;2022-08-05T10:29:01;99965.56;;;52.25;8.15
39051;BME280;24805;55.852;37.644;2022-08-05T10:34:04;99964.34;;;52.77;7.94
39051;BME280;24805;55.852;37.644;2022-08-05T10:39:20;99957.25;;;53.67;7.60
39051;BME280;24805;55.852;37.644;2022-08-05T10:44:46;99964.13;;;52.97;7.81
39051;BME280;24805;55.852;37.644;2022-08-05T10:50:09;99972.28;;;50.80;9.41
39051;BME280;24805;55.852;37.644;2022-08-05T10:56:01;99957.38;;;50.27;9.51
39051;BME280;24805;55.852;37.644;2022-08-05T11:01:06;99950.47;;;49.69;8.98
39051;BME280;24805;55.852;37.644;2022-08-05T11:06:12;99947.06;;;50.17;9.46
39051;BME280;24805;55.852;37.644;2022-08-05T11:11:34;99949.53;;;51.03;9.36
39051;BME280;24805;55.852;37.644;2022-08-05T11:17:26;99942.78;;;52.04;8.59
39051;BME280;24805;55.852;37.644;2022-08-05T11:22:49;99934.25;;;51.91;8.18
39051;BME280;24805;55.852;37.644;2022-08-05T11:38:55;99929.78;;;47.19;11.16
39051;BME280;24805;55.852;37.644;2022-08-05T11:44:08;99928.78;;;47.40;10.97
39051;BME280;24805;55.852;37.644;2022-08-05T11:49:35;99911.56;;;48.66;10.06
39051;BME280;24805;55.852;37.644;2022-08-05T11:54:38;99916.97;;;49.51;10.13
39051;BME280;24805;55.852;37.644;2022-08-05T11:59:44;99912.06;;;49.35;10.08
39051;BME280;24805;55.852;37.644;2022-08-05T12:04:51;99908.31;;;49.81;9.15
39051;BME280;24805;55.852;37.644;2022-08-05T12:10:02;99914.47;;;51.00;8.90
39051;BME280;24805;55.852;37.644;2022-08-05T12:15:19;99917.81;;;51.86;8.77
39051;BME280;24805;55.852;37.644;2022-08-05T12:20:39;99911.50;;;50.03;9.04
39051;BME280;24805;55.852;37.644;2022-08-05T12:30:51;99923.59;;;43.96;13.13
39051;BME280;24805;55.852;37.644;2022-08-05T12:35:56;99927.91;;;42.44;14.50
39051;BME280;24805;55.852;37.644;2022-08-05T12:40:58;99918.38;;;42.11;13.86
39051;BME280;24805;55.852;37.644;2022-08-05T12:46:01;99914.31;;;41.75;14.78
39051;BME280;24805;55.852;37.644;2022-08-05T12:51:14;99919.50;;;41.50;14.45
39051;BME280;24805;55.852;37.644;2022-08-05T12:56:41;99902.75;;;40.75;15.12
39051;BME280;24805;55.852;37.644;2022-08-05T13:02:05;99896.59;;;41.34;14.50
39051;BME280;24805;55.852;37.644;2022-08-05T13:07:13;99910.50;;;40.66;15.03
39051;BME280;24805;55.852;37.644;2022-08-05T13:12:41;99903.69;;;39.86;15.83
39051;BME280;24805;55.852;37.644;2022-08-05T13:17:58;99896.84;;;38.98;17.25
39051;BME280;24805;55.852;37.644;2022-08-05T13:23:01;99893.47;;;38.73;17.24
39051;BME280;24805;55.852;37.644;2022-08-05T13:28:08;99898.66;;;38.46;17.10
39051;BME280;24805;55.852;37.644;2022-08-05T13:33:11;99895.72;;;38.55;17.27
39051;BME280;24805;55.852;37.644;2022-08-05T13:38:33;99886.19;;;39.31;16.90
39051;BME280;24805;55.852;37.644;2022-08-05T13:43:42;99880.13;;;39.96;16.54
39051;BME280;24805;55.852;37.644;2022-08-05T13:48:56;99874.94;;;39.94;15.85
39051;BME280;24805;55.852;37.644;2022-08-05T13:54:01;99863.84;;;39.78;16.50
39051;BME280;24805;55.852;37.644;2022-08-05T13:59:12;99862.47;;;39.34;17.04
39051;BME280;24805;55.852;37.644;2022-08-05T14:04:21;99862.38;;;38.99;17.68
39051;BME280;24805;55.852;37.644;2022-08-05T14:09:42;99870.38;;;37.97;18.33
39051;BME280;24805;55.852;37.644;2022-08-05T14:14:47;99861.81;;;36.77;19.23
39051;BME280;24805;55.852;37.644;2022-08-05T14:19:53;99868.31;;;35.94;20.15
39051;BME280;24805;55.852;37.644;2022-08-05T14:25:03;99863.00;;;35.39;20.55
39051;BME280;24805;55.852;37.644;2022-08-05T14:30:22;99867.16;;;34.86;21.12
39051;BME280;24805;55.852;37.644;2022-08-05T14:35:28;99855.44;;;34.42;21.95
39051;BME280;24805;55.852;37.644;2022-08-05T14:40:50;99853.03;;;34.06;21.61
39051;BME280;24805;55.852;37.644;2022-08-05T14:45:52;99864.84;;;33.81;21.55
39051;BME280;24805;55.852;37.644;2022-08-05T14:50:54;99837.97;;;33.52;21.93
39051;BME280;24805;55.852;37.644;2022-08-05T14:55:57;99850.72;;;33.48;22.61
39051;BME280;24805;55.852;37.644;2022-08-05T15:00:59;99855.38;;;33.39;21.75
39051;BME280;24805;55.852;37.644;2022-08-05T15:06:03;99848.78;;;33.48;22.54
39051;BME280;24805;55.852;37.644;2022-08-05T15:11:16;99843.28;;;33.48;22.29
39051;BME280;24805;55.852;37.644;2022-08-05T15:16:20;99852.31;;;33.40;22.71
39051;BME280;24805;55.852;37.644;2022-08-05T15:21:23;99846.19;;;33.35;23.27
39051;BME280;24805;55.852;37.644;2022-08-05T15:26:25;99847.25;;;33.25;23.26
39051;BME280;24805;55.852;37.644;2022-08-05T15:31:33;99845.94;;;33.22;23.10
39051;BME280;24805;55.852;37.644;2022-08-05T15:36:35;99845.47;;;33.20;23.55
39051;BME280;24805;55.852;37.644;2022-08-05T15:41:39;99845.47;;;33.20;23.66
39051;BME280;24805;55.852;37.644;2022-08-05T15:47:02;99853.31;;;33.36;23.66
39051;BME280;24805;55.852;37.644;2022-08-05T15:52:05;99845.34;;;33.26;23.77
39051;BME280;24805;55.852;37.644;2022-08-05T15:57:18;99844.66;;;33.20;23.13
39051;BME280;24805;55.852;37.644;2022-08-05T16:02:21;99849.00;;;33.21;23.54
39051;BME280;24805;55.852;37.644;2022-08-05T16:07:26;99839.63;;;33.22;23.93
39051;BME280;24805;55.852;37.644;2022-08-05T16:12:30;99854.34;;;33.09;24.57
39051;BME280;24805;55.852;37.644;2022-08-05T16:17:32;99855.06;;;32.61;25.62
39051;BME280;24805;55.852;37.644;2022-08-05T16:22:34;99857.81;;;32.30;25.75
39051;BME280;24805;55.852;37.644;2022-08-05T16:27:38;99859.09;;;32.10;26.24
39051;BME280;24805;55.852;37.644;2022-08-05T16:33:01;99864.38;;;31.84;26.41
39051;BME280;24805;55.852;37.644;2022-08-05T16:38:03;99869.91;;;31.71;26.78
39051;BME280;24805;55.852;37.644;2022-08-05T16:43:28;99872.66;;;31.57;27.17
39051;BME280;24805;55.852;37.644;2022-08-05T16:48:31;99872.16;;;31.41;27.25
39051;BME280;24805;55.852;37.644;2022-08-05T16:53:40;99880.81;;;31.35;27.56
39051;BME280;24805;55.852;37.644;2022-08-05T16:59:05;99877.16;;;31.12;27.56
39051;BME280;24805;55.852;37.644;2022-08-05T17:04:09;99883.03;;;30.92;28.22
39051;BME280;24805;55.852;37.644;2022-08-05T17:09:11;99894.34;;;30.71;27.46
39051;BME280;24805;55.852;37.644;2022-08-05T17:14:15;99887.06;;;30.48;28.50
39051;BME280;24805;55.852;37.644;2022-08-05T17:19:37;99891.78;;;30.29;28.87
39051;BME280;24805;55.852;37.644;2022-08-05T17:24:39;99883.44;;;30.01;29.01
39051;BME280;24805;55.852;37.644;2022-08-05T17:29:59;99896.16;;;29.92;30.03
39051;BME280;24805;55.852;37.644;2022-08-05T17:35:04;99902.94;;;29.76;30.25
39051;BME280;24805;55.852;37.644;2022-08-05T17:40:10;99900.34;;;29.66;29.83
39051;BME280;24805;55.852;37.644;2022-08-05T17:45:13;99894.03;;;29.46;30.07
39051;BME280;24805;55.852;37.644;2022-08-05T17:50:26;99901.78;;;29.39;31.03
39051;BME280;24805;55.852;37.644;2022-08-05T17:55:31;99907.81;;;29.12;31.56
39051;BME280;24805;55.852;37.644;2022-08-05T18:00:45;99905.84;;;28.94;31.44
39051;BME280;24805;55.852;37.644;2022-08-05T18:05:52;99907.28;;;29.34;28.33
39051;BME280;24805;55.852;37.644;2022-08-05T18:10:55;99907.69;;;28.70;31.57
39051;BME280;24805;55.852;37.644;2022-08-05T18:15:57;99914.91;;;28.56;32.67
39051;BME280;24805;55.852;37.644;2022-08-05T18:21:05;99911.72;;;28.43;32.81
39051;BME280;24805;55.852;37.644;2022-08-05T18:26:24;99914.44;;;28.43;32.40
39051;BME280;24805;55.852;37.644;2022-08-05T18:31:32;99915.19;;;28.20;32.61
39051;BME280;24805;55.852;37.644;2022-08-05T18:36:36;99912.50;;;28.10;33.29
39051;BME280;24805;55.852;37.644;2022-08-05T18:41:38;99912.03;;;27.98;33.41
39051;BME280;24805;55.852;37.644;2022-08-05T18:47:01;99918.09;;;27.90;33.90
39051;BME280;24805;55.852;37.644;2022-08-05T18:52:04;99922.81;;;27.74;33.94
39051;BME280;24805;55.852;37.644;2022-08-05T18:57:34;99909.22;;;27.64;34.33
39051;BME280;24805;55.852;37.644;2022-08-05T19:02:54;99911.44;;;27.57;34.78
39051;BME280;24805;55.852;37.644;2022-08-05T19:07:58;99899.22;;;27.44;34.82
39051;BME280;24805;55.852;37.644;2022-08-05T19:13:02;99903.59;;;27.40;34.92
39051;BME280;24805;55.852;37.644;2022-08-05T19:18:07;99923.25;;;27.32;35.19
39051;BME280;24805;55.852;37.644;2022-08-05T19:23:23;99911.28;;;27.28;34.93
39051;BME280;24805;55.852;37.644;2022-08-05T19:28:45;99917.28;;;27.25;35.33
39051;BME280;24805;55.852;37.644;2022-08-05T19:33:47;99919.75;;;27.16;36.50
39051;BME280;24805;55.852;37.644;2022-08-05T19:38:58;99906.44;;;26.99;35.51
39051;BME280;24805;55.852;37.644;2022-08-05T19:44:02;99923.06;;;26.98;36.17
39051;BME280;24805;55.852;37.644;2022-08-05T19:49:14;99921.69;;;26.90;36.25
39051;BME280;24805;55.852;37.644;2022-08-05T19:54:18;99918.19;;;26.74;36.74
39051;BME280;24805;55.852;37.644;2022-08-05T19:59:31;99910.81;;;26.60;36.97
39051;BME280;24805;55.852;37.644;2022-08-05T20:04:53;99913.28;;;26.46;37.49
39051;BME280;24805;55.852;37.644;2022-08-05T20:10:01;99920.91;;;26.34;37.81
39051;BME280;24805;55.852;37.644;2022-08-05T20:15:12;99912.97;;;26.22;37.92
39051;BME280;24805;55.852;37.644;2022-08-05T20:20:14;99915.97;;;26.16;37.70
39051;BME280;24805;55.852;37.644;2022-08-05T20:25:16;99892.56;;;26.04;38.28
39051;BME280;24805;55.852;37.644;2022-08-05T20:30:19;99916.78;;;26.11;38.33
39051;BME280;24805;55.852;37.644;2022-08-05T20:35:27;99911.06;;;26.07;38.09
39051;BME280;24805;55.852;37.644;2022-08-05T20:40:32;99906.16;;;26.04;38.73
39051;BME280;24805;55.852;37.644;2022-08-05T20:45:36;99904.78;;;26.02;37.97
39051;BME280;24805;55.852;37.644;2022-08-05T20:50:57;99910.56;;;26.46;35.05
39051;BME280;24805;55.852;37.644;2022-08-05T20:56:08;99904.50;;;25.83;39.03
39051;BME280;24805;55.852;37.644;2022-08-05T21:01:10;99903.09;;;25.70;39.81
39051;BME280;24805;55.852;37.644;2022-08-05T21:06:14;99911.44;;;25.59;39.32
39051;BME280;24805;55.852;37.644;2022-08-05T21:11:29;99907.06;;;25.48;40.08
39051;BME280;24805;55.852;37.644;2022-08-05T21:16:51;99891.28;;;25.34;40.04
39051;BME280;24805;55.852;37.644;2022-08-05T21:21:54;99901.06;;;25.35;39.94
39051;BME280;24805;55.852;37.644;2022-08-05T21:26:56;99901.28;;;25.29;40.51
39051;BME280;24805;55.852;37.644;2022-08-05T21:32:02;99904.50;;;25.21;40.42
39051;BME280;24805;55.852;37.644;2022-08-05T21:37:05;99878.34;;;25.04;40.58
39051;BME280;24805;55.852;37.644;2022-08-05T21:42:09;99899.56;;;25.08;41.19
39051;BME280;24805;55.852;37.644;2022-08-05T21:47:31;99894.09;;;25.02;41.31
39051;BME280;24805;55.852;37.644;2022-08-05T21:52:55;99904.38;;;24.95;41.45
39051;BME280;24805;55.852;37.644;2022-08-05T21:58:05;99905.66;;;24.88;41.86
39051;BME280;24805;55.852;37.644;2022-08-05T22:03:11;99916.44;;;24.78;41.96
39051;BME280;24805;55.852;37.644;2022-08-05T22:08:16;99908.78;;;24.69;42.10
39051;BME280;24805;55.852;37.644;2022-08-05T22:13:24;99904.94;;;24.65;41.90
39051;BME280;24805;55.852;37.644;2022-08-05T22:18:47;99903.28;;;24.59;42.12
39051;BME280;24805;55.852;37.644;2022-08-05T22:23:49;99882.59;;;24.48;42.45
39051;BME280;24805;55.852;37.644;2022-08-05T22:29:30;99907.03;;;24.53;42.57
39051;BME280;24805;55.852;37.644;2022-08-05T22:34:33;99901.00;;;24.46;43.08
39051;BME280;24805;55.852;37.644;2022-08-05T22:39:36;99908.28;;;24.41;43.19
39051;BME280;24805;55.852;37.644;2022-08-05T22:44:40;99908.00;;;24.37;42.63
39051;BME280;24805;55.852;37.644;2022-08-05T22:49:58;99916.34;;;24.30;43.14
39051;BME280;24805;55.852;37.644;2022-08-05T22:55:22;99911.44;;;24.27;43.89
39051;BME280;24805;55.852;37.644;2022-08-05T23:00:27;99912.41;;;24.16;44.08
39051;BME280;24805;55.852;37.644;2022-08-05T23:05:32;99903.09;;;24.07;43.83
39051;BME280;24805;55.852;37.644;2022-08-05T23:10:37;99901.09;;;23.97;44.25
39051;BME280;24805;55.852;37.644;2022-08-05T23:15:39;99910.31;;;23.96;43.94
39051;BME280;24805;55.852;37.644;2022-08-05T23:20:41;99907.03;;;23.94;44.01
39051;BME280;24805;55.852;37.644;2022-08-05T23:25:44;99894.19;;;23.85;44.18
39051;BME280;24805;55.852;37.644;2022-08-05T23:30:56;99892.22;;;23.80;44.52
39051;BME280;24805;55.852;37.644;2022-08-05T23:36:19;99901.75;;;23.83;44.65
39051;BME280;24805;55.852;37.644;2022-08-05T23:41:21;99907.66;;;23.80;44.86
39051;BME280;24805;55.852;37.644;2022-08-05T23:46:24;99920.38;;;23.79;45.12
39051;BME280;24805;55.852;37.644;2022-08-05T23:51:28;99920.09;;;23.76;45.32
39051;BME280;24805;55.852;37.644;2022-08-05T23:56:55;99923.56;;;23.71;45.50
